createdAt,value
2023-05-22T00:01:26.139Z,91795.13
2023-05-22T00:03:58.666Z,91794.66
2023-05-22T00:06:33.402Z,91801.28
2023-05-22T00:09:05.910Z,91793.88
2023-05-22T00:11:38.838Z,91792.66
2023-05-22T00:14:12.760Z,91798.16
2023-05-22T00:16:47.577Z,91795.13
2023-05-22T00:19:22.328Z,91788.34
2023-05-22T00:21:54.749Z,91780.50
2023-05-22T00:24:27.098Z,91781.56
2023-05-22T00:26:59.415Z,91786.50
2023-05-22T00:29:32.666Z,91785.25
2023-05-22T00:32:06.682Z,91778.78
2023-05-22T00:34:39.235Z,91776.34
2023-05-22T00:37:11.672Z,91784.19
2023-05-22T00:39:44.168Z,91784.03
2023-05-22T00:42:16.752Z,91785.28
2023-05-22T00:44:49.186Z,91780.22
2023-05-22T00:47:22.998Z,91778.69
2023-05-22T00:49:55.749Z,91780.09
2023-05-22T00:52:28.064Z,91787.63
2023-05-22T00:55:00.987Z,91788.72
2023-05-22T00:57:33.520Z,91792.41
2023-05-22T01:00:09.956Z,91786.09
2023-05-22T01:02:43.418Z,91786.25
2023-05-22T01:05:17.376Z,91783.78
2023-05-22T01:07:49.865Z,91778.72
2023-05-22T01:10:22.398Z,91781.03
2023-05-22T01:13:03.948Z,91777.34
2023-05-22T01:15:43.893Z,91783.34
2023-05-22T01:18:29.545Z,91778.56
2023-05-22T01:21:09.558Z,91772.13
2023-05-22T01:24:15.420Z,91770.88
2023-05-22T01:27:10.417Z,91768.28
2023-05-22T01:29:48.010Z,91761.97
2023-05-22T01:32:25.144Z,91763.84
2023-05-22T01:35:03.075Z,91766.28
2023-05-22T01:37:36.363Z,91758.91
2023-05-22T01:40:11.553Z,91756.00
2023-05-22T01:42:45.172Z,91752.47
2023-05-22T01:45:17.566Z,91748.16
2023-05-22T01:47:51.492Z,91745.09
2023-05-22T01:50:24.216Z,91745.84
2023-05-22T01:53:06.574Z,91753.25
2023-05-22T01:55:44.894Z,91748.47
2023-05-22T01:58:25.300Z,91754.00
2023-05-22T02:01:01.040Z,91748.16
2023-05-22T02:03:56.664Z,91751.06
2023-05-22T02:06:31.909Z,91745.56
2023-05-22T02:09:06.771Z,91745.41
2023-05-22T02:11:41.234Z,91748.63
2023-05-22T02:14:13.690Z,91744.78
2023-05-22T02:16:46.988Z,91747.53
2023-05-22T02:19:20.198Z,91750.78
2023-05-22T02:21:54.741Z,91754.13
2023-05-22T02:24:27.420Z,91763.97
2023-05-22T02:27:00.916Z,91767.03
2023-05-22T02:29:33.388Z,91770.28
2023-05-22T02:32:06.397Z,91752.28
2023-05-22T02:34:39.604Z,91769.97
2023-05-22T02:37:12.569Z,91772.88
2023-05-22T02:39:48.069Z,91769.81
2023-05-22T02:42:20.495Z,91767.66
2023-05-22T02:44:53.021Z,91767.97
2023-05-22T02:47:25.478Z,91767.69
2023-05-22T02:49:58.619Z,91770.13
2023-05-22T02:52:30.983Z,91765.06
2023-05-22T02:55:03.650Z,91766.16
2023-05-22T02:57:36.321Z,91758.75
2023-05-22T03:00:10.843Z,91765.50
2023-05-22T03:02:43.440Z,91757.53
2023-05-22T03:05:17.106Z,91764.91
2023-05-22T03:07:49.497Z,91758.47
2023-05-22T03:10:23.041Z,91753.38
2023-05-22T03:12:55.423Z,91757.06
2023-05-22T03:15:27.913Z,91761.06
2023-05-22T03:18:04.863Z,91760.78
2023-05-22T03:20:38.372Z,91759.84
2023-05-22T03:23:11.576Z,91762.91
2023-05-22T03:25:43.953Z,91761.50
2023-05-22T03:28:16.675Z,91761.50
2023-05-22T03:30:49.240Z,91767.19
2023-05-22T03:33:30.384Z,91771.19
2023-05-22T03:36:03.986Z,91774.56
2023-05-22T03:38:36.325Z,91779.31
2023-05-22T03:41:08.650Z,91778.84
2023-05-22T03:43:48.875Z,91778.09
2023-05-22T03:46:21.434Z,91785.00
2023-05-22T03:48:54.077Z,91773.75
2023-05-22T03:51:27.261Z,91782.84
2023-05-22T03:53:59.605Z,91784.38
2023-05-22T03:56:32.025Z,91787.41
2023-05-22T03:59:04.423Z,91786.19
2023-05-22T04:01:38.636Z,91784.38
2023-05-22T04:04:11.474Z,91776.03
2023-05-22T04:06:44.558Z,91772.66
2023-05-22T04:09:19.809Z,91780.34
2023-05-22T04:11:52.605Z,91777.53
2023-05-22T04:14:25.482Z,91781.34
2023-05-22T04:16:57.917Z,91770.03
2023-05-22T04:19:30.442Z,91778.13
2023-05-22T04:22:03.922Z,91779.53
2023-05-22T04:24:38.993Z,91779.09
2023-05-22T04:27:12.471Z,91782.94
2023-05-22T04:29:46.280Z,91780.75
2023-05-22T04:32:21.114Z,91784.69
2023-05-22T04:34:53.447Z,91779.91
2023-05-22T04:37:28.068Z,91791.69
2023-05-22T04:40:06.158Z,91797.03
2023-05-22T04:42:38.712Z,91798.28
2023-05-22T04:45:13.111Z,91793.66
2023-05-22T04:47:45.472Z,91800.06
2023-05-22T04:50:18.134Z,91804.44
2023-05-22T04:52:51.112Z,91807.19
2023-05-22T04:55:23.518Z,91805.44
2023-05-22T04:57:56.049Z,91805.81
2023-05-22T05:00:29.415Z,91803.94
2023-05-22T05:03:03.675Z,91808.22
2023-05-22T05:05:36.203Z,91809.44
2023-05-22T05:08:09.362Z,91813.22
2023-05-22T05:10:41.853Z,91813.16
2023-05-22T05:13:14.281Z,91806.06
2023-05-22T05:15:46.716Z,91808.94
2023-05-22T05:18:19.493Z,91807.94
2023-05-22T05:20:51.872Z,91810.44
2023-05-22T05:23:24.885Z,91815.16
2023-05-22T05:25:57.269Z,91815.22
2023-05-22T05:28:29.646Z,91817.88
2023-05-22T05:31:02.353Z,91816.91
2023-05-22T05:33:57.364Z,91819.94
2023-05-22T05:36:37.313Z,91827.28
2023-05-22T05:39:10.521Z,91823.03
2023-05-22T05:41:43.749Z,91824.47
2023-05-22T05:44:16.545Z,91821.44
2023-05-22T05:46:49.259Z,91815.22
2023-05-22T05:49:23.758Z,91820.41
2023-05-22T05:51:56.140Z,91829.56
2023-05-22T05:54:30.093Z,91831.97
2023-05-22T05:57:07.121Z,91831.72
2023-05-22T05:59:40.462Z,91826.03
2023-05-22T06:02:38.458Z,91830.09
2023-05-22T06:05:12.855Z,91820.56
2023-05-22T06:07:47.585Z,91826.13
2023-05-22T06:10:21.819Z,91823.28
2023-05-22T06:13:08.000Z,91821.38
2023-05-22T06:15:40.567Z,91831.34
2023-05-22T06:18:13.125Z,91822.41
2023-05-22T06:20:45.484Z,91830.25
2023-05-22T06:23:17.810Z,91835.19
2023-05-22T06:25:50.972Z,91832.75
2023-05-22T06:28:23.410Z,91832.16
2023-05-22T06:30:56.502Z,91833.41
2023-05-22T06:33:29.364Z,91830.06
2023-05-22T06:36:03.045Z,91829.56
2023-05-22T06:38:37.238Z,91832.19
2023-05-22T06:41:11.521Z,91837.41
2023-05-22T06:43:44.494Z,91828.78
2023-05-22T06:46:18.060Z,91832.66
2023-05-22T06:48:58.227Z,91835.84
2023-05-22T06:51:33.507Z,91840.66
2023-05-22T06:54:13.120Z,91838.69
2023-05-22T06:56:49.257Z,91834.06
2023-05-22T06:59:23.297Z,91834.72
2023-05-22T07:01:58.497Z,91834.91
2023-05-22T07:04:39.864Z,91842.25
2023-05-22T07:07:15.250Z,91836.97
2023-05-22T07:09:47.931Z,91848.22
2023-05-22T07:12:25.266Z,91845.78
2023-05-22T07:14:59.475Z,91843.16
2023-05-22T07:17:32.268Z,91841.75
2023-05-22T07:20:06.253Z,91840.50
2023-05-22T07:22:41.076Z,91848.25
2023-05-22T07:25:13.481Z,91849.50
2023-05-22T07:27:47.008Z,91842.59
2023-05-22T07:30:19.545Z,91845.44
2023-05-22T07:32:53.463Z,91843.53
2023-05-22T07:35:26.190Z,91831.47
2023-05-22T07:37:58.699Z,91836.50
2023-05-22T07:40:31.243Z,91835.63
2023-05-22T07:43:04.494Z,91831.16
2023-05-22T07:45:39.016Z,91841.84
2023-05-22T07:48:14.538Z,91839.47
2023-05-22T07:50:47.124Z,91839.47
2023-05-22T07:53:21.051Z,91838.09
2023-05-22T07:55:56.507Z,91835.81
2023-05-22T07:58:30.087Z,91832.34
2023-05-22T08:01:04.248Z,91834.72
2023-05-22T08:03:37.183Z,91844.00
2023-05-22T08:06:22.488Z,91842.94
2023-05-22T08:08:54.906Z,91842.47
2023-05-22T08:11:27.546Z,91840.16
2023-05-22T08:14:00.937Z,91841.59
2023-05-22T08:16:33.504Z,91839.22
2023-05-22T08:19:06.339Z,91848.66
2023-05-22T08:21:39.621Z,91841.19
2023-05-22T08:24:11.977Z,91846.47
2023-05-22T08:26:44.324Z,91850.63
2023-05-22T08:29:18.063Z,91839.38
2023-05-22T08:31:51.626Z,91848.84
2023-05-22T08:34:24.075Z,91845.34
2023-05-22T08:36:56.596Z,91843.50
2023-05-22T08:39:28.945Z,91845.34
2023-05-22T08:42:02.704Z,91851.44
2023-05-22T08:44:35.907Z,91854.38
2023-05-22T08:47:10.560Z,91853.41
2023-05-22T08:49:45.337Z,91855.25
2023-05-22T08:52:21.693Z,91855.63
2023-05-22T08:54:55.173Z,91845.47
2023-05-22T08:57:27.868Z,91844.75
2023-05-22T09:00:01.362Z,91842.88
2023-05-22T09:02:35.301Z,91853.84
2023-05-22T09:05:09.110Z,91850.69
2023-05-22T09:07:41.892Z,91847.75
2023-05-22T09:10:14.333Z,91842.31
2023-05-22T09:13:05.009Z,91838.91
2023-05-22T09:15:38.140Z,91836.75
2023-05-22T09:18:10.672Z,91837.56
2023-05-22T09:20:43.433Z,91831.16
2023-05-22T09:23:17.672Z,91818.00
2023-05-22T09:25:53.652Z,91830.88
2023-05-22T09:28:26.761Z,91816.78
2023-05-22T09:31:02.503Z,91821.81
2023-05-22T09:33:36.866Z,91816.69
2023-05-22T09:36:09.799Z,91819.94
2023-05-22T09:38:42.440Z,91809.31
2023-05-22T09:41:21.514Z,91823.25
2023-05-22T09:43:53.997Z,91820.09
2023-05-22T09:46:27.184Z,91826.34
2023-05-22T09:49:01.495Z,91833.59
2023-05-22T09:51:35.666Z,91818.72
2023-05-22T09:54:09.094Z,91818.41
2023-05-22T09:56:43.979Z,91823.47
2023-05-22T09:59:21.623Z,91828.66
2023-05-22T10:01:55.459Z,91833.03
2023-05-22T10:04:32.708Z,91826.47
2023-05-22T10:07:06.074Z,91823.91
2023-05-22T10:09:40.214Z,91821.69
2023-05-22T10:12:15.760Z,91828.78
2023-05-22T10:14:48.657Z,91823.44
2023-05-22T10:17:22.879Z,91829.16
2023-05-22T10:19:57.387Z,91829.59
2023-05-22T10:22:32.710Z,91828.97
2023-05-22T10:25:08.567Z,91834.25
2023-05-22T10:27:42.408Z,91824.25
2023-05-22T10:30:24.077Z,91832.34
2023-05-22T10:33:21.453Z,91831.94
2023-05-22T10:36:01.434Z,91826.75
2023-05-22T10:39:03.657Z,91832.13
2023-05-22T10:41:36.290Z,91828.94
2023-05-22T10:44:08.735Z,91830.38
2023-05-22T10:46:48.597Z,91824.56
2023-05-22T10:49:23.171Z,91835.53
2023-05-22T10:51:56.582Z,91838.38
2023-05-22T10:54:40.563Z,91842.47
2023-05-22T10:57:17.359Z,91855.38
2023-05-22T10:59:49.863Z,91858.50
2023-05-22T11:02:28.576Z,91850.72
2023-05-22T11:05:35.750Z,91857.91
2023-05-22T11:08:12.465Z,91867.16
2023-05-22T11:10:55.305Z,91859.56
2023-05-22T11:13:29.264Z,91858.28
2023-05-22T11:16:05.594Z,91855.00
2023-05-22T11:18:38.121Z,91852.50
2023-05-22T11:21:11.547Z,91849.63
2023-05-22T11:23:45.898Z,91844.44
2023-05-22T11:26:25.234Z,91842.84
2023-05-22T11:28:59.833Z,91839.25
2023-05-22T11:31:32.677Z,91830.91
2023-05-22T11:34:05.418Z,91830.78
2023-05-22T11:36:38.598Z,91829.25
2023-05-22T11:39:14.719Z,91831.81
2023-05-22T11:41:47.127Z,91821.84
2023-05-22T11:44:19.511Z,91832.31
2023-05-22T11:46:52.247Z,91841.69
2023-05-22T11:49:25.193Z,91870.63
2023-05-22T11:51:58.379Z,91902.28
2023-05-22T11:54:32.323Z,91901.00
2023-05-22T11:57:06.180Z,91896.16
2023-05-22T11:59:38.646Z,91894.38
2023-05-22T12:02:11.154Z,91886.72
2023-05-22T12:04:43.584Z,91888.31
2023-05-22T12:07:16.789Z,91886.25
2023-05-22T12:09:49.556Z,91872.97
2023-05-22T12:12:22.809Z,91870.78
2023-05-22T12:14:57.345Z,91869.50
2023-05-22T12:17:29.770Z,91870.56
2023-05-22T12:20:04.069Z,91868.97
2023-05-22T12:22:42.691Z,91863.81
2023-05-22T12:25:16.901Z,91858.13
2023-05-22T12:27:51.269Z,91857.59
2023-05-22T12:30:23.642Z,91855.28
2023-05-22T12:32:56.430Z,91852.66
2023-05-22T12:35:28.895Z,91844.25
2023-05-22T12:38:02.087Z,91836.88
2023-05-22T12:40:34.607Z,91834.59
2023-05-22T12:43:07.514Z,91830.94
2023-05-22T12:45:41.998Z,91832.91
2023-05-22T12:48:14.788Z,91834.63
2023-05-22T12:50:47.307Z,91837.22
2023-05-22T12:53:20.511Z,91835.13
2023-05-22T12:55:52.871Z,91832.47
2023-05-22T12:58:25.283Z,91839.88
2023-05-22T13:00:57.814Z,91839.31
2023-05-22T13:03:30.704Z,91846.09
2023-05-22T13:06:03.402Z,91832.38
2023-05-22T13:08:36.593Z,91838.13
2023-05-22T13:11:10.687Z,91824.81
2023-05-22T13:13:43.120Z,91824.91
2023-05-22T13:16:16.257Z,91828.22
2023-05-22T13:18:48.781Z,91820.22
2023-05-22T13:21:21.204Z,91819.78
2023-05-22T13:23:55.221Z,91823.63
2023-05-22T13:26:28.362Z,91815.81
2023-05-22T13:29:04.532Z,91814.03
2023-05-22T13:31:37.570Z,91808.38
2023-05-22T13:34:10.356Z,91803.19
2023-05-22T13:36:43.139Z,91809.03
2023-05-22T13:39:18.864Z,91807.59
2023-05-22T13:41:52.621Z,91791.63
2023-05-22T13:44:25.398Z,91791.38
2023-05-22T13:46:57.965Z,91793.75
2023-05-22T13:49:30.429Z,91786.97
2023-05-22T13:52:03.116Z,91781.63
2023-05-22T13:54:36.213Z,91779.56
2023-05-22T13:57:08.717Z,91780.94
2023-05-22T13:59:41.147Z,91780.94
2023-05-22T14:02:13.632Z,91783.47
2023-05-22T14:04:48.562Z,91781.25
2023-05-22T14:07:21.191Z,91784.69
2023-05-22T14:09:54.252Z,91783.16
2023-05-22T14:12:26.818Z,91777.97
2023-05-22T14:14:59.302Z,91778.22
2023-05-22T14:17:31.647Z,91780.09
2023-05-22T14:20:04.573Z,91772.28
2023-05-22T14:22:47.918Z,91768.69
2023-05-22T14:25:29.265Z,91766.41
2023-05-22T14:28:02.007Z,91775.06
2023-05-22T14:30:34.411Z,91780.59
2023-05-22T14:33:07.014Z,91776.06
2023-05-22T14:35:39.546Z,91779.28
2023-05-22T14:38:12.041Z,91772.34
2023-05-22T14:40:45.223Z,91770.41
2023-05-22T14:43:17.515Z,91765.91
2023-05-22T14:45:50.116Z,91776.19
2023-05-22T14:48:25.413Z,91776.44
2023-05-22T14:50:57.812Z,91773.44
2023-05-22T14:53:30.135Z,91775.91
2023-05-22T14:56:03.268Z,91777.03
2023-05-22T14:58:35.551Z,91779.63
2023-05-22T15:01:07.924Z,91780.03
2023-05-22T15:03:40.238Z,91788.53
2023-05-22T15:06:12.557Z,91788.19
2023-05-22T15:08:44.887Z,91781.13
2023-05-22T15:11:17.856Z,91787.41
2023-05-22T15:13:50.840Z,91794.50
2023-05-22T15:16:24.864Z,91783.84
2023-05-22T15:18:57.250Z,91787.47
2023-05-22T15:21:29.772Z,91794.06
2023-05-22T15:24:02.483Z,91790.88
2023-05-22T15:26:35.502Z,91795.03
2023-05-22T15:29:07.909Z,91796.06
2023-05-22T15:31:40.290Z,91791.75
2023-05-22T15:34:12.622Z,91796.47
2023-05-22T15:36:44.960Z,91794.28
2023-05-22T15:39:17.304Z,91795.03
2023-05-22T15:42:02.455Z,91795.09
2023-05-22T15:44:37.953Z,91798.16
2023-05-22T15:47:10.280Z,91800.25
2023-05-22T15:49:42.619Z,91790.59
2023-05-22T15:52:15.053Z,91787.72
2023-05-22T15:54:47.366Z,91793.06
2023-05-22T15:57:20.393Z,91793.25
2023-05-22T15:59:52.748Z,91790.88
2023-05-22T16:02:25.110Z,91788.66
2023-05-22T16:04:57.464Z,91775.66
2023-05-22T16:07:29.791Z,91778.63
2023-05-22T16:10:02.155Z,91778.47
2023-05-22T16:12:35.308Z,91774.38
2023-05-22T16:15:08.844Z,91770.66
2023-05-22T16:17:41.176Z,91767.81
2023-05-22T16:20:13.550Z,91771.44
2023-05-22T16:22:48.979Z,91769.81
2023-05-22T16:25:21.819Z,91771.75
2023-05-22T16:27:54.801Z,91761.81
2023-05-22T16:30:27.154Z,91765.75
2023-05-22T16:32:59.527Z,91758.28
2023-05-22T16:35:31.886Z,91756.31
2023-05-22T16:38:06.295Z,91752.69
2023-05-22T16:40:38.631Z,91749.09
2023-05-22T16:43:13.057Z,91750.94
2023-05-22T16:45:50.152Z,91751.09
2023-05-22T16:48:22.525Z,91757.16
2023-05-22T16:50:54.882Z,91758.19
2023-05-22T16:53:27.220Z,91763.22
2023-05-22T16:55:59.673Z,91766.50
2023-05-22T16:58:32.728Z,91778.31
2023-05-22T17:01:05.951Z,91774.59
2023-05-22T17:03:38.384Z,91785.09
2023-05-22T17:06:11.432Z,91795.53
2023-05-22T17:08:43.994Z,91796.19
2023-05-22T17:11:16.363Z,91799.03
2023-05-22T17:13:49.438Z,91806.38
2023-05-22T17:16:21.797Z,91806.94
2023-05-22T17:18:55.076Z,91810.41
2023-05-22T17:21:28.152Z,91813.69
2023-05-22T17:24:01.075Z,91821.22
2023-05-22T17:26:33.745Z,91816.28
2023-05-22T17:29:06.986Z,91818.69
2023-05-22T17:31:39.782Z,91819.59
2023-05-22T17:34:12.235Z,91827.13
2023-05-22T17:36:45.235Z,91831.94
2023-05-22T17:39:17.700Z,91828.63
2023-05-22T17:41:50.586Z,91835.44
2023-05-22T17:44:23.585Z,91838.69
2023-05-22T17:46:55.967Z,91838.09
2023-05-22T17:49:28.330Z,91841.50
2023-05-22T17:52:01.030Z,91846.91
2023-05-22T17:54:33.979Z,91857.38
2023-05-22T17:57:06.361Z,91855.16
2023-05-22T17:59:40.416Z,91854.66
2023-05-22T18:02:13.111Z,91860.78
2023-05-22T18:04:45.474Z,91860.19
2023-05-22T18:07:19.246Z,91860.53
2023-05-22T18:09:51.788Z,91857.59
2023-05-22T18:12:31.703Z,91860.66
2023-05-22T18:15:08.754Z,91859.34
2023-05-22T18:17:41.498Z,91865.38
2023-05-22T18:20:16.020Z,91859.53
2023-05-22T18:22:48.356Z,91857.78
2023-05-22T18:25:20.689Z,91863.69
2023-05-22T18:27:54.404Z,91859.78
2023-05-22T18:30:27.511Z,91865.31
2023-05-22T18:33:00.038Z,91863.03
2023-05-22T18:35:33.036Z,91866.16
2023-05-22T18:38:05.735Z,91872.56
2023-05-22T18:40:38.123Z,91864.75
2023-05-22T18:43:10.552Z,91863.75
2023-05-22T18:45:43.593Z,91871.28
2023-05-22T18:48:15.996Z,91870.06
2023-05-22T18:50:48.481Z,91876.91
2023-05-22T18:53:22.132Z,91905.16
2023-05-22T18:55:54.489Z,91900.88
2023-05-22T18:58:26.862Z,91914.78
2023-05-22T19:01:01.025Z,91907.28
2023-05-22T19:03:33.486Z,91925.75
2023-05-22T19:06:06.458Z,91920.19
2023-05-22T19:08:39.689Z,91930.13
2023-05-22T19:11:12.106Z,91936.59
2023-05-22T19:13:44.737Z,91940.88
2023-05-22T19:16:17.880Z,91937.16
2023-05-22T19:18:50.513Z,91931.31
2023-05-22T19:21:23.809Z,91927.94
2023-05-22T19:23:56.164Z,91925.16
2023-05-22T19:26:28.475Z,91935.38
2023-05-22T19:29:00.897Z,91925.31
2023-05-22T19:31:34.650Z,91929.00
2023-05-22T19:34:07.074Z,91927.50
2023-05-22T19:36:39.422Z,91922.44
2023-05-22T19:39:11.817Z,91923.69
2023-05-22T19:41:44.259Z,91919.25
2023-05-22T19:44:16.625Z,91912.63
2023-05-22T19:46:49.840Z,91913.22
2023-05-22T19:49:22.360Z,91913.66
2023-05-22T19:51:56.151Z,91915.69
2023-05-22T19:54:28.777Z,91919.50
2023-05-22T19:57:02.252Z,91921.03
2023-05-22T19:59:36.507Z,91905.94
2023-05-22T20:02:10.413Z,91908.84
2023-05-22T20:04:48.783Z,91907.56
2023-05-22T20:07:21.217Z,91901.50
2023-05-22T20:09:53.563Z,91896.25
2023-05-22T20:12:26.122Z,91896.34
2023-05-22T20:14:59.094Z,91894.94
2023-05-22T20:17:32.211Z,91897.94
2023-05-22T20:20:08.954Z,91901.31
2023-05-22T20:22:41.282Z,91902.06
2023-05-22T20:25:13.637Z,91898.41
2023-05-22T20:27:53.453Z,91897.03
2023-05-22T20:30:25.797Z,91908.22
2023-05-22T20:32:58.920Z,91903.88
2023-05-22T20:35:31.591Z,91911.44
2023-05-22T20:38:03.970Z,91913.13
2023-05-22T20:40:41.605Z,91909.81
2023-05-22T20:43:17.890Z,91911.50
2023-05-22T20:45:50.455Z,91904.72
2023-05-22T20:48:26.131Z,91902.75
2023-05-22T20:50:58.496Z,91910.88
2023-05-22T20:53:33.728Z,91912.47
2023-05-22T20:56:08.782Z,91912.63
2023-05-22T20:58:52.502Z,91917.53
2023-05-22T21:01:33.410Z,91919.22
2023-05-22T21:04:07.045Z,91916.91
2023-05-22T21:06:39.545Z,91920.91
2023-05-22T21:09:11.957Z,91904.63
2023-05-22T21:11:44.307Z,91924.59
2023-05-22T21:14:16.839Z,91919.06
2023-05-22T21:16:49.236Z,91915.69
2023-05-22T21:19:22.318Z,91919.50
2023-05-22T21:21:54.694Z,91921.66
2023-05-22T21:24:27.248Z,91925.53
2023-05-22T21:26:59.859Z,91922.13
2023-05-22T21:29:32.201Z,91915.97
2023-05-22T21:32:05.305Z,91917.69
2023-05-22T21:34:38.321Z,91915.09
2023-05-22T21:37:10.770Z,91917.06
2023-05-22T21:39:43.157Z,91919.72
2023-05-22T21:42:16.189Z,91916.63
2023-05-22T21:44:48.634Z,91915.22
2023-05-22T21:47:20.990Z,91921.69
2023-05-22T21:49:53.937Z,91921.09
2023-05-22T21:52:27.956Z,91924.94
2023-05-22T21:55:01.612Z,91922.63
2023-05-22T21:57:34.363Z,91914.47
2023-05-22T22:00:07.832Z,91921.09
2023-05-22T22:02:40.331Z,91921.69
2023-05-22T22:05:13.479Z,91919.41
2023-05-22T22:07:45.855Z,91919.09
2023-05-22T22:10:18.232Z,91919.84
2023-05-22T22:12:50.567Z,91916.78
2023-05-22T22:15:22.985Z,91918.16
2023-05-22T22:17:59.376Z,91926.47
2023-05-22T22:20:43.477Z,91914.78
2023-05-22T22:23:17.069Z,91918.03
2023-05-22T22:25:49.623Z,91916.34
2023-05-22T22:28:22.018Z,91925.38
2023-05-22T22:30:54.346Z,91928.34
2023-05-22T22:33:26.700Z,91928.94
2023-05-22T22:35:59.810Z,91928.16
2023-05-22T22:38:34.319Z,91932.75
2023-05-22T22:41:08.641Z,91930.00
2023-05-22T22:43:41.074Z,91927.38
2023-05-22T22:46:13.761Z,91932.59
2023-05-22T22:48:46.057Z,91933.19
2023-05-22T22:51:19.371Z,91931.38
2023-05-22T22:53:51.834Z,91921.69
2023-05-22T22:56:27.372Z,91919.97
2023-05-22T22:58:59.741Z,91919.81
2023-05-22T23:01:32.407Z,91916.59
2023-05-22T23:04:04.904Z,91915.97
2023-05-22T23:06:41.021Z,91926.88
2023-05-22T23:09:14.600Z,91913.66
2023-05-22T23:11:46.936Z,91919.50
2023-05-22T23:14:19.706Z,91918.56
2023-05-22T23:16:52.325Z,91918.53
2023-05-22T23:19:24.729Z,91914.84
2023-05-22T23:21:57.744Z,91911.00
2023-05-22T23:24:30.083Z,91916.38
2023-05-22T23:27:02.398Z,91909.91
2023-05-22T23:29:34.702Z,91904.97
2023-05-22T23:32:07.081Z,91909.72
2023-05-22T23:34:39.614Z,91907.25
2023-05-22T23:37:12.642Z,91897.88
2023-05-22T23:39:44.953Z,91903.22
2023-05-22T23:42:18.027Z,91894.31
2023-05-22T23:44:50.366Z,91907.81
2023-05-22T23:47:22.742Z,91905.31
2023-05-22T23:49:55.999Z,91908.69
2023-05-22T23:52:29.008Z,91913.13
2023-05-22T23:55:01.474Z,91917.25
2023-05-22T23:57:33.845Z,91914.28
